createdAt,value
2019-03-18T00:00:16.185Z,89.50
2019-03-18T00:00:50.874Z,89.40
2019-03-18T00:01:25.426Z,89.20
2019-03-18T00:02:00.008Z,89.10
2019-03-18T00:02:34.636Z,89.20
2019-03-18T00:03:09.235Z,89.10
2019-03-18T00:03:43.797Z,89.20
2019-03-18T00:04:18.329Z,89.20
2019-03-18T00:04:52.822Z,89.40
2019-03-18T00:05:27.465Z,89.80
2019-03-18T00:06:02.039Z,89.90
2019-03-18T00:06:36.699Z,89.70
2019-03-18T00:07:11.266Z,89.00
2019-03-18T00:07:45.781Z,89.20
2019-03-18T00:08:20.363Z,89.60
2019-03-18T00:08:54.931Z,89.60
2019-03-18T00:09:29.679Z,89.90
2019-03-18T00:10:05.688Z,90.00
2019-03-18T00:10:40.185Z,90.10
2019-03-18T00:11:15.097Z,90.10
2019-03-18T00:11:49.618Z,90.10
2019-03-18T00:12:24.169Z,90.20
2019-03-18T00:12:58.756Z,90.10
2019-03-18T00:13:33.241Z,90.10
2019-03-18T00:14:07.739Z,90.10
2019-03-18T00:14:42.231Z,90.20
2019-03-18T00:15:16.913Z,90.20
2019-03-18T00:15:51.576Z,89.80
2019-03-18T00:16:26.083Z,89.80
2019-03-18T00:17:00.590Z,90.00
2019-03-18T00:17:35.138Z,90.10
2019-03-18T00:18:09.756Z,90.00
2019-03-18T00:18:44.253Z,89.80
2019-03-18T00:19:18.857Z,90.00
2019-03-18T00:19:53.354Z,90.00
2019-03-18T00:20:27.877Z,90.10
2019-03-18T00:21:02.364Z,90.10
2019-03-18T00:21:36.896Z,90.00
2019-03-18T00:22:11.464Z,90.00
2019-03-18T00:22:46.145Z,89.70
2019-03-18T00:23:20.737Z,89.80
2019-03-18T00:23:55.298Z,89.30
2019-03-18T00:24:30.001Z,89.50
2019-03-18T00:25:06.952Z,89.60
2019-03-18T00:25:41.454Z,89.60
2019-03-18T00:26:15.965Z,89.30
2019-03-18T00:26:50.464Z,88.10
2019-03-18T00:27:24.957Z,88.30
2019-03-18T00:27:59.480Z,89.40
2019-03-18T00:28:34.060Z,88.90
2019-03-18T00:29:08.556Z,89.10
2019-03-18T00:29:43.390Z,89.30
2019-03-18T00:30:21.178Z,88.70
2019-03-18T00:30:55.670Z,88.90
2019-03-18T00:31:30.246Z,88.60
2019-03-18T00:32:04.749Z,88.00
2019-03-18T00:32:39.246Z,88.00
2019-03-18T00:33:13.807Z,88.20
2019-03-18T00:33:48.304Z,88.30
2019-03-18T00:34:22.785Z,88.30
2019-03-18T00:34:57.269Z,88.40
2019-03-18T00:35:31.773Z,88.60
2019-03-18T00:36:06.317Z,88.50
2019-03-18T00:36:40.838Z,88.30
2019-03-18T00:37:15.423Z,88.00
2019-03-18T00:37:49.988Z,88.00
2019-03-18T00:38:24.544Z,88.20
2019-03-18T00:38:59.044Z,88.40
2019-03-18T00:39:33.529Z,87.90
2019-03-18T00:40:13.859Z,87.40
2019-03-18T00:40:48.363Z,87.50
2019-03-18T00:41:22.876Z,88.00
2019-03-18T00:41:57.366Z,88.40
2019-03-18T00:42:33.391Z,88.30
2019-03-18T00:43:07.890Z,88.30
2019-03-18T00:43:42.382Z,88.40
2019-03-18T00:44:17.316Z,88.30
2019-03-18T00:44:51.815Z,88.30
2019-03-18T00:45:27.274Z,88.00
2019-03-18T00:46:01.774Z,88.00
2019-03-18T00:46:36.257Z,88.20
2019-03-18T00:47:10.776Z,88.30
2019-03-18T00:47:45.270Z,88.20
2019-03-18T00:48:19.837Z,88.40
2019-03-18T00:48:54.359Z,88.50
2019-03-18T00:49:28.916Z,88.50
2019-03-18T00:50:05.024Z,88.50
2019-03-18T00:50:39.511Z,88.50
2019-03-18T00:51:14.005Z,88.40
2019-03-18T00:51:48.529Z,88.10
2019-03-18T00:52:23.025Z,87.50
2019-03-18T00:52:57.510Z,87.30
2019-03-18T00:53:32.077Z,87.30
2019-03-18T00:54:06.651Z,87.30
2019-03-18T00:54:41.237Z,87.50
2019-03-18T00:55:15.726Z,87.70
2019-03-18T00:55:51.833Z,87.70
2019-03-18T00:56:26.649Z,87.60
2019-03-18T00:57:01.142Z,88.10
2019-03-18T00:57:35.666Z,87.40
2019-03-18T00:58:10.188Z,87.70
2019-03-18T00:58:44.705Z,87.80
2019-03-18T00:59:19.270Z,87.90
2019-03-18T00:59:53.788Z,88.00
2019-03-18T01:00:28.507Z,87.90
2019-03-18T01:01:03.193Z,88.10
2019-03-18T01:01:38.015Z,88.00
2019-03-18T01:02:12.626Z,88.30
2019-03-18T01:02:49.445Z,88.50
2019-03-18T01:03:24.095Z,88.40
2019-03-18T01:03:58.672Z,88.30
2019-03-18T01:04:33.199Z,88.20
2019-03-18T01:05:07.814Z,88.00
2019-03-18T01:05:42.381Z,88.00
2019-03-18T01:06:16.881Z,87.80
2019-03-18T01:06:51.380Z,87.80
2019-03-18T01:07:25.872Z,87.80
2019-03-18T01:08:00.600Z,87.80
2019-03-18T01:08:35.154Z,87.70
2019-03-18T01:09:09.710Z,87.80
2019-03-18T01:09:44.369Z,87.50
2019-03-18T01:10:18.960Z,87.50
2019-03-18T01:10:53.536Z,87.20
2019-03-18T01:11:28.333Z,87.30
2019-03-18T01:12:02.967Z,87.30
2019-03-18T01:12:37.504Z,87.50
2019-03-18T01:13:12.086Z,87.80
2019-03-18T01:13:46.584Z,88.10
2019-03-18T01:14:21.247Z,87.90
2019-03-18T01:14:55.810Z,88.20
2019-03-18T01:15:30.389Z,88.30
2019-03-18T01:16:04.929Z,88.30
2019-03-18T01:16:39.570Z,88.50
2019-03-18T01:17:14.156Z,88.60
2019-03-18T01:17:48.696Z,88.30
2019-03-18T01:18:23.261Z,88.10
2019-03-18T01:18:57.854Z,88.20
2019-03-18T01:19:32.413Z,88.40
2019-03-18T01:20:09.042Z,88.40
2019-03-18T01:20:43.700Z,88.10
2019-03-18T01:21:18.181Z,88.10
2019-03-18T01:21:52.672Z,88.20
2019-03-18T01:22:27.159Z,88.00
2019-03-18T01:23:01.665Z,88.10
2019-03-18T01:23:36.169Z,88.10
2019-03-18T01:24:11.032Z,88.40
2019-03-18T01:24:45.594Z,88.40
2019-03-18T01:25:20.083Z,88.30
2019-03-18T01:25:54.592Z,88.50
2019-03-18T01:26:29.085Z,88.70
2019-03-18T01:27:03.594Z,88.70
2019-03-18T01:27:38.170Z,88.50
2019-03-18T01:28:12.734Z,88.30
2019-03-18T01:28:47.236Z,88.30
2019-03-18T01:29:21.741Z,88.60
2019-03-18T01:29:56.347Z,88.70
2019-03-18T01:30:30.930Z,89.00
2019-03-18T01:31:05.578Z,88.20
2019-03-18T01:31:40.132Z,88.00
2019-03-18T01:32:14.689Z,87.60
2019-03-18T01:32:49.223Z,87.60
2019-03-18T01:33:23.807Z,88.00
2019-03-18T01:33:58.344Z,87.80
2019-03-18T01:34:32.837Z,88.30
2019-03-18T01:35:09.336Z,88.10
2019-03-18T01:35:43.884Z,87.70
2019-03-18T01:36:18.382Z,87.80
2019-03-18T01:36:52.916Z,87.70
2019-03-18T01:37:27.435Z,87.80
2019-03-18T01:38:01.976Z,87.60
2019-03-18T01:38:36.555Z,87.60
2019-03-18T01:39:11.065Z,87.60
2019-03-18T01:39:45.562Z,87.80
2019-03-18T01:40:20.069Z,87.70
2019-03-18T01:40:54.616Z,87.70
2019-03-18T01:41:29.109Z,87.70
2019-03-18T01:42:03.597Z,87.80
2019-03-18T01:42:38.202Z,87.50
2019-03-18T01:43:12.714Z,87.50
2019-03-18T01:43:47.212Z,87.30
2019-03-18T01:44:21.729Z,87.60
2019-03-18T01:44:56.625Z,87.90
2019-03-18T01:45:40.016Z,88.00
2019-03-18T01:46:07.397Z,87.70
2019-03-18T01:46:41.902Z,87.50
2019-03-18T01:47:16.396Z,87.40
2019-03-18T01:47:50.890Z,87.70
2019-03-18T01:48:25.402Z,87.80
2019-03-18T01:48:59.936Z,87.80
2019-03-18T01:49:34.488Z,88.00
2019-03-18T01:50:11.289Z,87.80
2019-03-18T01:50:45.790Z,87.50
2019-03-18T01:51:20.746Z,87.50
2019-03-18T01:51:55.248Z,87.40
2019-03-18T01:52:29.754Z,87.50
2019-03-18T01:53:04.352Z,87.60
2019-03-18T01:53:38.941Z,87.70
2019-03-18T01:54:13.557Z,87.90
2019-03-18T01:54:48.056Z,87.90
2019-03-18T01:55:22.897Z,88.10
2019-03-18T01:55:57.392Z,88.20
2019-03-18T01:56:31.918Z,88.10
2019-03-18T01:57:06.477Z,88.10
2019-03-18T01:57:40.975Z,88.20
2019-03-18T01:58:15.469Z,88.10
2019-03-18T01:58:49.955Z,87.80
2019-03-18T01:59:24.706Z,87.90
2019-03-18T01:59:59.207Z,87.90
2019-03-18T02:00:33.730Z,87.90
2019-03-18T02:01:08.295Z,87.90
2019-03-18T02:01:42.788Z,87.90
2019-03-18T02:02:17.621Z,87.90
2019-03-18T02:02:52.465Z,88.10
2019-03-18T02:03:27.059Z,87.80
2019-03-18T02:04:01.713Z,87.50
2019-03-18T02:04:36.239Z,87.50
2019-03-18T02:05:11.551Z,88.10
2019-03-18T02:05:46.185Z,88.10
2019-03-18T02:06:20.738Z,87.20
2019-03-18T02:06:55.261Z,87.20
2019-03-18T02:07:29.778Z,87.40
2019-03-18T02:08:04.290Z,87.70
2019-03-18T02:08:38.874Z,87.40
2019-03-18T02:09:13.433Z,87.50
2019-03-18T02:09:47.924Z,87.50
2019-03-18T02:10:22.426Z,87.60
2019-03-18T02:10:56.929Z,87.70
2019-03-18T02:11:31.458Z,87.80
2019-03-18T02:12:05.969Z,87.60
2019-03-18T02:12:40.568Z,87.80
2019-03-18T02:13:15.075Z,88.00
2019-03-18T02:13:49.601Z,88.00
2019-03-18T02:14:24.092Z,88.00
2019-03-18T02:14:58.588Z,87.80
2019-03-18T02:15:33.070Z,87.70
2019-03-18T02:16:07.650Z,87.60
2019-03-18T02:16:42.219Z,87.60
2019-03-18T02:17:16.717Z,87.50
2019-03-18T02:17:51.232Z,87.50
2019-03-18T02:18:25.725Z,87.70
2019-03-18T02:19:00.213Z,87.60
2019-03-18T02:19:34.799Z,87.60
2019-03-18T02:20:19.218Z,87.50
2019-03-18T02:20:52.353Z,87.40
2019-03-18T02:21:26.916Z,87.00
2019-03-18T02:22:01.410Z,86.90
2019-03-18T02:22:35.900Z,87.00
2019-03-18T02:23:10.384Z,87.10
2019-03-18T02:23:44.887Z,87.30
2019-03-18T02:24:19.502Z,87.50
2019-03-18T02:24:54.069Z,87.60
2019-03-18T02:25:28.560Z,87.50
2019-03-18T02:26:03.133Z,87.60
2019-03-18T02:26:38.086Z,87.60
2019-03-18T02:27:12.578Z,87.60
2019-03-18T02:27:47.065Z,87.60
2019-03-18T02:28:21.559Z,87.50
2019-03-18T02:28:56.067Z,87.30
2019-03-18T02:29:30.652Z,87.40
2019-03-18T02:30:15.826Z,87.60
2019-03-18T02:30:50.389Z,87.60
2019-03-18T02:31:24.976Z,87.60
2019-03-18T02:31:59.547Z,87.60
2019-03-18T02:32:34.107Z,87.70
2019-03-18T02:33:08.609Z,87.50
2019-03-18T02:33:43.216Z,87.50
2019-03-18T02:34:17.812Z,87.60
2019-03-18T02:34:52.377Z,88.30
2019-03-18T02:35:26.910Z,87.70
2019-03-18T02:36:01.570Z,87.80
2019-03-18T02:36:36.112Z,87.80
2019-03-18T02:37:10.741Z,88.00
2019-03-18T02:37:45.308Z,87.80
2019-03-18T02:38:19.817Z,87.60
2019-03-18T02:38:54.309Z,87.40
2019-03-18T02:39:28.891Z,87.20
2019-03-18T02:40:04.479Z,87.20
2019-03-18T02:40:38.982Z,87.10
2019-03-18T02:41:13.543Z,87.20
2019-03-18T02:41:48.058Z,87.30
2019-03-18T02:42:22.668Z,87.10
2019-03-18T02:42:57.297Z,87.20
2019-03-18T02:43:32.190Z,87.40
2019-03-18T02:44:06.773Z,87.30
2019-03-18T02:44:41.268Z,87.30
2019-03-18T02:45:15.774Z,87.40
2019-03-18T02:45:50.255Z,87.50
2019-03-18T02:46:24.759Z,87.70
2019-03-18T02:46:59.317Z,87.70
2019-03-18T02:47:33.809Z,87.70
2019-03-18T02:48:08.374Z,87.80
2019-03-18T02:48:42.878Z,87.70
2019-03-18T02:49:17.369Z,87.30
2019-03-18T02:49:51.947Z,87.50
2019-03-18T02:50:26.512Z,87.40
2019-03-18T02:51:01.074Z,87.30
2019-03-18T02:51:35.637Z,87.40
2019-03-18T02:52:10.409Z,87.50
2019-03-18T02:52:45.045Z,87.40
2019-03-18T02:53:19.843Z,87.40
2019-03-18T02:53:54.406Z,87.10
2019-03-18T02:54:28.910Z,86.80
2019-03-18T02:55:04.301Z,86.60
2019-03-18T02:55:38.783Z,86.60
2019-03-18T02:56:13.291Z,86.70
2019-03-18T02:56:47.824Z,86.70
2019-03-18T02:57:22.315Z,86.70
2019-03-18T02:57:56.870Z,86.90
2019-03-18T02:58:31.392Z,87.10
2019-03-18T02:59:05.958Z,87.30
2019-03-18T02:59:40.539Z,87.00
2019-03-18T03:00:15.612Z,87.00
2019-03-18T03:00:50.097Z,87.10
2019-03-18T03:01:24.653Z,87.00
2019-03-18T03:01:59.146Z,87.10
2019-03-18T03:02:33.641Z,87.20
2019-03-18T03:03:08.140Z,87.50
2019-03-18T03:03:42.712Z,87.70
2019-03-18T03:04:17.222Z,87.70
2019-03-18T03:04:51.721Z,87.80
2019-03-18T03:05:26.241Z,87.60
2019-03-18T03:06:00.803Z,87.40
2019-03-18T03:06:35.373Z,87.00
2019-03-18T03:07:09.943Z,87.00
2019-03-18T03:07:44.832Z,87.00
2019-03-18T03:08:19.391Z,87.10
2019-03-18T03:08:53.892Z,87.10
2019-03-18T03:09:28.629Z,87.20
2019-03-18T03:10:03.866Z,87.20
2019-03-18T03:10:38.431Z,87.30
2019-03-18T03:11:12.931Z,87.50
2019-03-18T03:11:47.423Z,87.70
2019-03-18T03:12:21.916Z,87.80
2019-03-18T03:12:56.577Z,88.00
2019-03-18T03:13:31.125Z,88.00
2019-03-18T03:14:05.675Z,88.00
2019-03-18T03:14:40.187Z,88.10
2019-03-18T03:15:15.140Z,88.20
2019-03-18T03:15:49.724Z,88.20
2019-03-18T03:16:26.865Z,88.10
2019-03-18T03:17:00.468Z,88.20
2019-03-18T03:17:34.961Z,88.50
2019-03-18T03:18:09.599Z,88.70
2019-03-18T03:18:44.106Z,88.70
2019-03-18T03:19:18.604Z,88.50
2019-03-18T03:19:53.256Z,88.40
2019-03-18T03:20:27.859Z,88.40
2019-03-18T03:21:02.393Z,88.50
2019-03-18T03:21:36.948Z,88.60
2019-03-18T03:22:11.457Z,88.50
2019-03-18T03:22:46.034Z,88.40
2019-03-18T03:23:20.592Z,88.40
2019-03-18T03:23:55.101Z,88.40
2019-03-18T03:24:29.614Z,88.50
2019-03-18T03:25:04.852Z,88.70
2019-03-18T03:25:39.353Z,88.90
2019-03-18T03:26:14.348Z,89.00
2019-03-18T03:26:48.971Z,88.80
2019-03-18T03:27:23.541Z,88.90
2019-03-18T03:27:58.305Z,88.90
2019-03-18T03:28:32.856Z,88.90
2019-03-18T03:29:07.357Z,89.00
2019-03-18T03:29:41.836Z,89.10
2019-03-18T03:30:16.896Z,89.00
2019-03-18T03:30:51.460Z,89.00
2019-03-18T03:31:26.023Z,88.90
2019-03-18T03:32:00.578Z,88.90
2019-03-18T03:32:35.588Z,89.00
2019-03-18T03:33:10.090Z,89.00
2019-03-18T03:33:44.657Z,89.10
2019-03-18T03:34:19.156Z,89.20
2019-03-18T03:34:53.748Z,89.30
2019-03-18T03:35:28.301Z,89.20
2019-03-18T03:36:02.848Z,89.40
2019-03-18T03:36:37.416Z,89.60
2019-03-18T03:37:11.906Z,89.70
2019-03-18T03:37:46.509Z,90.00
2019-03-18T03:38:21.004Z,90.00
2019-03-18T03:38:55.626Z,90.00
2019-03-18T03:39:30.210Z,89.60
2019-03-18T03:40:07.001Z,89.60
2019-03-18T03:40:41.496Z,89.70
2019-03-18T03:41:17.941Z,89.60
2019-03-18T03:41:52.282Z,89.50
2019-03-18T03:42:26.799Z,89.30
2019-03-18T03:43:01.367Z,89.10
2019-03-18T03:43:36.008Z,89.20
2019-03-18T03:44:10.573Z,89.20
2019-03-18T03:44:45.126Z,89.30
2019-03-18T03:45:19.619Z,89.60
2019-03-18T03:45:54.108Z,89.70
2019-03-18T03:46:42.391Z,89.50
2019-03-18T03:47:05.072Z,89.20
2019-03-18T03:47:39.578Z,89.00
2019-03-18T03:48:14.095Z,89.00
2019-03-18T03:48:48.649Z,88.90
2019-03-18T03:49:23.140Z,89.00
2019-03-18T03:49:57.638Z,89.20
2019-03-18T03:50:32.194Z,89.00
2019-03-18T03:51:07.061Z,89.00
2019-03-18T03:52:00.966Z,89.20
2019-03-18T03:52:35.608Z,89.40
2019-03-18T03:53:10.143Z,89.60
2019-03-18T03:53:44.886Z,89.50
2019-03-18T03:54:19.369Z,89.50
2019-03-18T03:54:53.946Z,89.60
2019-03-18T03:55:28.493Z,89.70
2019-03-18T03:56:03.147Z,89.60
2019-03-18T03:56:37.901Z,89.50
2019-03-18T03:57:12.506Z,89.60
2019-03-18T03:57:47.441Z,89.60
2019-03-18T03:58:22.164Z,89.70
2019-03-18T03:58:56.908Z,89.70
2019-03-18T03:59:31.487Z,89.80
2019-03-18T04:00:11.690Z,89.60
2019-03-18T04:00:46.249Z,89.70
2019-03-18T04:01:20.761Z,89.60
2019-03-18T04:01:55.491Z,89.50
2019-03-18T04:02:30.080Z,89.30
2019-03-18T04:03:04.637Z,89.10
2019-03-18T04:03:39.264Z,88.90
2019-03-18T04:04:13.798Z,89.00
2019-03-18T04:04:48.449Z,89.00
2019-03-18T04:05:22.971Z,89.10
2019-03-18T04:05:57.472Z,89.10
2019-03-18T04:06:32.082Z,89.30
2019-03-18T04:07:06.661Z,89.20
2019-03-18T04:07:41.231Z,89.30
2019-03-18T04:08:15.808Z,89.50
2019-03-18T04:08:50.400Z,89.50
2019-03-18T04:09:24.925Z,89.50
2019-03-18T04:09:59.463Z,89.60
2019-03-18T04:10:33.947Z,89.60
2019-03-18T04:11:09.065Z,89.70
2019-03-18T04:11:43.785Z,89.80
2019-03-18T04:12:18.356Z,89.90
2019-03-18T04:12:52.904Z,90.00
2019-03-18T04:13:27.451Z,89.90
2019-03-18T04:14:02.031Z,89.40
2019-03-18T04:14:36.617Z,89.20
2019-03-18T04:15:12.877Z,89.10
2019-03-18T04:15:47.448Z,89.10
2019-03-18T04:16:22.016Z,89.30
2019-03-18T04:17:03.787Z,89.50
2019-03-18T04:17:32.809Z,89.30
2019-03-18T04:18:07.298Z,89.10
2019-03-18T04:18:41.813Z,89.30
2019-03-18T04:19:16.395Z,89.50
2019-03-18T04:19:50.957Z,89.60
2019-03-18T04:20:25.515Z,89.50
2019-03-18T04:21:00.301Z,89.20
2019-03-18T04:21:34.897Z,88.90
2019-03-18T04:22:09.471Z,88.90
2019-03-18T04:22:44.038Z,88.80
2019-03-18T04:23:18.638Z,88.50
2019-03-18T04:23:53.473Z,88.60
2019-03-18T04:24:27.968Z,88.90
2019-03-18T04:25:02.531Z,89.20
2019-03-18T04:25:37.098Z,89.10
2019-03-18T04:26:11.684Z,89.00
2019-03-18T04:26:46.239Z,89.00
2019-03-18T04:27:24.428Z,89.20
2019-03-18T04:27:57.201Z,89.10
2019-03-18T04:28:31.700Z,89.10
2019-03-18T04:29:06.268Z,89.10
2019-03-18T04:29:40.848Z,89.20
2019-03-18T04:30:15.782Z,89.30
2019-03-18T04:30:50.342Z,89.30
2019-03-18T04:31:24.850Z,89.20
2019-03-18T04:31:59.416Z,89.20
2019-03-18T04:32:34.001Z,89.40
2019-03-18T04:33:08.492Z,89.50
2019-03-18T04:33:43.005Z,89.50
2019-03-18T04:34:17.498Z,89.40
2019-03-18T04:34:51.985Z,89.50
2019-03-18T04:35:26.489Z,89.50
2019-03-18T04:36:00.982Z,89.40
2019-03-18T04:36:35.653Z,89.50
2019-03-18T04:37:10.167Z,89.40
2019-03-18T04:37:44.662Z,89.50
2019-03-18T04:38:19.217Z,89.60
2019-03-18T04:38:54.088Z,89.50
2019-03-18T04:39:28.655Z,89.60
2019-03-18T04:40:03.315Z,89.50
2019-03-18T04:40:37.842Z,89.30
2019-03-18T04:41:12.367Z,89.00
2019-03-18T04:41:46.917Z,89.00
2019-03-18T04:42:21.578Z,89.10
2019-03-18T04:42:56.153Z,89.30
2019-03-18T04:43:30.789Z,89.20
2019-03-18T04:44:05.300Z,89.00
2019-03-18T04:44:39.800Z,89.00
2019-03-18T04:45:14.288Z,89.00
2019-03-18T04:45:48.785Z,89.00
2019-03-18T04:46:23.300Z,89.20
2019-03-18T04:46:57.794Z,89.20
2019-03-18T04:47:32.348Z,89.30
2019-03-18T04:48:06.842Z,89.90
2019-03-18T04:48:41.325Z,89.40
2019-03-18T04:49:15.804Z,89.40
2019-03-18T04:49:50.305Z,89.30
2019-03-18T04:50:24.807Z,89.50
2019-03-18T04:50:59.308Z,89.30
2019-03-18T04:51:35.181Z,89.30
2019-03-18T04:52:10.809Z,89.30
2019-03-18T04:52:45.326Z,89.00
2019-03-18T04:53:19.896Z,89.10
2019-03-18T04:53:54.410Z,89.00
2019-03-18T04:54:29.232Z,88.80
2019-03-18T04:55:05.040Z,88.70
2019-03-18T04:55:39.692Z,88.50
2019-03-18T04:56:14.214Z,88.60
2019-03-18T04:56:48.706Z,88.70
2019-03-18T04:57:23.222Z,88.70
2019-03-18T04:57:57.795Z,89.00
2019-03-18T04:58:32.307Z,89.00
2019-03-18T04:59:06.891Z,88.80
2019-03-18T04:59:41.460Z,88.80
2019-03-18T05:00:16.276Z,88.90
2019-03-18T05:00:50.781Z,88.80
2019-03-18T05:01:25.277Z,88.80
2019-03-18T05:01:59.901Z,88.80
2019-03-18T05:02:34.451Z,88.90
2019-03-18T05:03:08.939Z,88.70
2019-03-18T05:03:43.444Z,88.50
2019-03-18T05:04:18.004Z,89.20
2019-03-18T05:04:52.495Z,88.40
2019-03-18T05:05:26.981Z,88.30
2019-03-18T05:06:01.856Z,88.50
2019-03-18T05:06:36.381Z,88.70
2019-03-18T05:07:10.942Z,88.80
2019-03-18T05:07:45.546Z,88.70
2019-03-18T05:08:20.160Z,88.80
2019-03-18T05:08:54.651Z,88.70
2019-03-18T05:09:29.219Z,89.00
2019-03-18T05:10:05.271Z,89.00
2019-03-18T05:10:39.815Z,89.00
2019-03-18T05:11:14.312Z,89.00
2019-03-18T05:11:48.826Z,89.00
2019-03-18T05:12:23.377Z,88.80
2019-03-18T05:12:57.941Z,88.70
2019-03-18T05:13:32.559Z,88.80
2019-03-18T05:14:07.062Z,88.80
2019-03-18T05:14:41.889Z,88.50
2019-03-18T05:15:16.473Z,88.80
2019-03-18T05:15:51.089Z,88.80
2019-03-18T05:16:25.578Z,88.90
2019-03-18T05:17:00.071Z,89.10
2019-03-18T05:17:34.568Z,89.10
2019-03-18T05:18:09.128Z,89.00
2019-03-18T05:18:43.617Z,88.80
2019-03-18T05:19:18.152Z,88.70
2019-03-18T05:19:52.672Z,88.80
2019-03-18T05:20:27.187Z,88.90
2019-03-18T05:21:01.683Z,89.00
2019-03-18T05:21:36.248Z,88.70
2019-03-18T05:22:10.736Z,88.90
2019-03-18T05:22:45.315Z,88.70
2019-03-18T05:23:19.808Z,88.70
2019-03-18T05:23:54.482Z,89.40
2019-03-18T05:24:28.996Z,88.60
2019-03-18T05:25:04.536Z,88.60
2019-03-18T05:25:39.089Z,88.50
2019-03-18T05:26:13.582Z,88.30
2019-03-18T05:26:48.081Z,88.20
2019-03-18T05:27:22.603Z,88.30
2019-03-18T05:27:57.141Z,88.40
2019-03-18T05:28:31.633Z,88.40
2019-03-18T05:29:06.214Z,88.50
2019-03-18T05:29:40.705Z,88.10
2019-03-18T05:30:15.308Z,88.10
2019-03-18T05:30:49.884Z,88.20
2019-03-18T05:31:24.708Z,88.40
2019-03-18T05:31:59.214Z,88.30
2019-03-18T05:32:33.697Z,88.30
2019-03-18T05:33:08.188Z,88.70
2019-03-18T05:33:42.699Z,87.70
2019-03-18T05:34:17.214Z,87.60
2019-03-18T05:34:51.788Z,87.60
2019-03-18T05:35:26.345Z,87.80
2019-03-18T05:36:00.840Z,87.80
2019-03-18T05:36:35.328Z,87.40
2019-03-18T05:37:09.917Z,87.10
2019-03-18T05:37:44.409Z,87.10
2019-03-18T05:38:18.986Z,87.00
2019-03-18T05:38:53.814Z,86.70
2019-03-18T05:39:28.319Z,86.30
2019-03-18T05:40:02.910Z,86.30
2019-03-18T05:40:37.497Z,86.30
2019-03-18T05:41:12.036Z,86.40
2019-03-18T05:41:46.542Z,86.70
2019-03-18T05:42:21.033Z,87.00
2019-03-18T05:42:55.594Z,87.10
2019-03-18T05:43:30.085Z,87.30
2019-03-18T05:44:04.678Z,87.20
2019-03-18T05:44:39.332Z,87.30
2019-03-18T05:45:13.902Z,87.30
2019-03-18T05:45:48.460Z,86.90
2019-03-18T05:46:22.961Z,86.90
2019-03-18T05:46:57.488Z,87.10
2019-03-18T05:47:40.014Z,87.00
2019-03-18T05:48:14.743Z,87.20
2019-03-18T05:48:49.231Z,87.30
2019-03-18T05:49:23.739Z,87.10
2019-03-18T05:49:58.560Z,86.60
2019-03-18T05:50:33.111Z,86.80
2019-03-18T05:51:07.738Z,86.70
2019-03-18T05:51:42.245Z,86.70
2019-03-18T05:52:16.909Z,87.10
2019-03-18T05:52:51.521Z,86.90
2019-03-18T05:53:26.778Z,87.30
2019-03-18T05:54:01.519Z,87.40
2019-03-18T05:54:36.088Z,87.40
2019-03-18T05:55:10.877Z,87.10
2019-03-18T05:55:45.539Z,86.80
2019-03-18T05:56:20.059Z,87.00
2019-03-18T05:56:54.543Z,86.90
2019-03-18T05:57:29.141Z,86.90
2019-03-18T05:58:03.748Z,86.50
2019-03-18T05:58:38.564Z,86.20
2019-03-18T05:59:16.299Z,86.30
2019-03-18T05:59:50.818Z,86.20
2019-03-18T06:00:25.440Z,86.70
2019-03-18T06:01:00.009Z,86.30
2019-03-18T06:01:34.682Z,86.40
2019-03-18T06:02:09.356Z,86.40
2019-03-18T06:02:46.854Z,87.30
2019-03-18T06:03:20.176Z,86.80
2019-03-18T06:03:54.682Z,87.00
2019-03-18T06:04:29.436Z,86.90
2019-03-18T06:05:04.967Z,86.40
2019-03-18T06:05:39.449Z,86.10
2019-03-18T06:06:13.984Z,86.00
2019-03-18T06:06:48.562Z,86.00
2019-03-18T06:07:23.074Z,86.20
2019-03-18T06:07:57.621Z,86.20
2019-03-18T06:08:32.253Z,86.40
2019-03-18T06:09:07.129Z,86.40
2019-03-18T06:09:41.705Z,86.40
2019-03-18T06:10:16.446Z,86.30
2019-03-18T06:10:50.948Z,86.30
2019-03-18T06:11:25.552Z,86.20
2019-03-18T06:12:00.116Z,86.20
2019-03-18T06:12:34.725Z,86.00
2019-03-18T06:13:09.235Z,85.80
2019-03-18T06:13:43.815Z,85.80
2019-03-18T06:14:18.402Z,85.70
2019-03-18T06:14:52.956Z,85.80
2019-03-18T06:15:27.452Z,86.00
2019-03-18T06:16:02.051Z,86.20
2019-03-18T06:16:36.684Z,86.20
2019-03-18T06:17:11.194Z,86.40
2019-03-18T06:17:52.113Z,86.20
2019-03-18T06:18:21.892Z,86.20
2019-03-18T06:18:56.393Z,86.20
2019-03-18T06:19:31.036Z,85.90
2019-03-18T06:20:12.160Z,85.70
2019-03-18T06:20:46.656Z,85.50
2019-03-18T06:21:21.155Z,85.60
2019-03-18T06:21:55.649Z,85.80
2019-03-18T06:22:30.158Z,85.90
2019-03-18T06:23:04.683Z,86.00
2019-03-18T06:23:39.253Z,85.90
2019-03-18T06:24:13.764Z,85.90
2019-03-18T06:24:48.420Z,85.50
2019-03-18T06:25:22.925Z,85.30
2019-03-18T06:25:57.424Z,85.40
2019-03-18T06:26:31.922Z,85.40
2019-03-18T06:27:06.428Z,85.00
2019-03-18T06:27:40.950Z,85.70
2019-03-18T06:28:15.444Z,85.10
2019-03-18T06:28:50.032Z,85.20
2019-03-18T06:29:27.382Z,85.80
2019-03-18T06:30:00.777Z,84.90
2019-03-18T06:30:35.275Z,85.00
2019-03-18T06:31:11.081Z,85.20
2019-03-18T06:31:46.578Z,85.20
2019-03-18T06:32:21.121Z,85.40
2019-03-18T06:32:55.624Z,85.40
2019-03-18T06:33:30.131Z,86.00
2019-03-18T06:34:04.695Z,85.30
2019-03-18T06:34:41.928Z,84.80
2019-03-18T06:35:16.489Z,84.50
2019-03-18T06:35:51.052Z,84.50
2019-03-18T06:36:25.553Z,84.50
2019-03-18T06:37:00.057Z,84.60
2019-03-18T06:37:34.630Z,84.60
2019-03-18T06:38:09.189Z,84.60
2019-03-18T06:38:43.701Z,84.10
2019-03-18T06:39:18.269Z,84.20
2019-03-18T06:39:52.766Z,84.00
2019-03-18T06:40:27.248Z,84.10
2019-03-18T06:41:01.745Z,83.80
2019-03-18T06:41:36.280Z,83.60
2019-03-18T06:42:10.760Z,83.60
2019-03-18T06:42:45.282Z,84.00
2019-03-18T06:43:19.837Z,84.30
2019-03-18T06:43:54.329Z,84.60
2019-03-18T06:44:28.921Z,84.60
2019-03-18T06:45:04.335Z,84.50
2019-03-18T06:45:38.829Z,84.60
2019-03-18T06:46:13.321Z,84.70
2019-03-18T06:46:47.836Z,84.70
2019-03-18T06:47:22.331Z,84.90
2019-03-18T06:48:04.947Z,85.00
2019-03-18T06:48:33.102Z,85.20
2019-03-18T06:49:07.607Z,85.90
2019-03-18T06:49:47.242Z,85.50
2019-03-18T06:50:22.072Z,85.30
2019-03-18T06:50:56.819Z,85.20
2019-03-18T06:51:31.427Z,85.50
2019-03-18T06:52:06.009Z,85.70
2019-03-18T06:52:40.497Z,85.90
2019-03-18T06:53:14.993Z,86.00
2019-03-18T06:53:49.485Z,86.10
2019-03-18T06:54:23.988Z,86.40
2019-03-18T06:54:58.480Z,86.50
2019-03-18T06:55:32.964Z,86.50
2019-03-18T06:56:07.469Z,86.40
2019-03-18T06:56:42.040Z,86.30
2019-03-18T06:57:16.649Z,86.20
2019-03-18T06:57:51.493Z,86.30
2019-03-18T06:58:26.345Z,86.20
2019-03-18T06:59:00.898Z,86.40
2019-03-18T06:59:35.419Z,86.30
2019-03-18T07:00:12.596Z,86.30
2019-03-18T07:00:47.102Z,86.20
2019-03-18T07:01:21.601Z,86.00
2019-03-18T07:01:56.107Z,85.70
2019-03-18T07:02:30.672Z,85.60
2019-03-18T07:03:05.276Z,86.60
2019-03-18T07:03:39.799Z,85.90
2019-03-18T07:04:14.398Z,86.10
2019-03-18T07:04:48.901Z,85.90
2019-03-18T07:05:23.398Z,85.70
2019-03-18T07:05:57.942Z,85.80
2019-03-18T07:06:32.429Z,85.70
2019-03-18T07:07:06.932Z,85.80
2019-03-18T07:07:41.493Z,85.80
2019-03-18T07:08:15.988Z,85.70
2019-03-18T07:08:50.498Z,85.50
2019-03-18T07:09:25.021Z,85.50
2019-03-18T07:09:59.514Z,85.40
2019-03-18T07:10:34.094Z,85.20
2019-03-18T07:11:08.588Z,85.20
2019-03-18T07:11:43.096Z,84.90
2019-03-18T07:12:17.586Z,84.40
2019-03-18T07:12:52.080Z,84.40
2019-03-18T07:13:26.592Z,85.20
2019-03-18T07:14:01.160Z,84.30
2019-03-18T07:14:35.755Z,84.40
2019-03-18T07:15:11.495Z,84.50
2019-03-18T07:15:46.094Z,84.60
2019-03-18T07:16:20.594Z,84.60
2019-03-18T07:16:55.139Z,84.60
2019-03-18T07:17:29.636Z,84.80
2019-03-18T07:18:17.125Z,84.60
2019-03-18T07:18:40.400Z,84.50
2019-03-18T07:19:14.916Z,84.50
2019-03-18T07:19:49.426Z,84.70
2019-03-18T07:20:23.990Z,84.60
2019-03-18T07:20:58.497Z,84.60
2019-03-18T07:21:33.083Z,84.50
2019-03-18T07:22:07.713Z,84.40
2019-03-18T07:22:42.430Z,84.20
2019-03-18T07:23:16.924Z,83.90
2019-03-18T07:23:51.426Z,84.00
2019-03-18T07:24:25.941Z,83.80
2019-03-18T07:25:00.521Z,84.10
2019-03-18T07:25:35.131Z,84.30
2019-03-18T07:26:09.609Z,84.60
2019-03-18T07:26:44.131Z,84.80
2019-03-18T07:27:18.684Z,85.00